sensor_id;sensor_type;location;lat;lon;timestamp;temperature;humidity
14140;DHT22;7150;53.514;9.988;2023-02-25T00:01:47;10.10;84.80
14140;DHT22;7150;53.514;9.988;2023-02-25T00:04:12;10.20;83.80
14140;DHT22;7150;53.514;9.988;2023-02-25T00:06:38;10.20;84.30
14140;DHT22;7150;53.514;9.988;2023-02-25T00:09:03;10.20;84.40
14140;DHT22;7150;53.514;9.988;2023-02-25T00:11:30;10.20;84.30
14140;DHT22;7150;53.514;9.988;2023-02-25T00:13:56;10.30;83.80
14140;DHT22;7150;53.514;9.988;2023-02-25T00:16:22;10.30;83.30
14140;DHT22;7150;53.514;9.988;2023-02-25T00:18:55;10.20;83.00
14140;DHT22;7150;53.514;9.988;2023-02-25T00:21:22;10.20;82.90
14140;DHT22;7150;53.514;9.988;2023-02-25T00:23:48;10.20;82.70
14140;DHT22;7150;53.514;9.988;2023-02-25T00:26:15;10.20;82.60
14140;DHT22;7150;53.514;9.988;2023-02-25T00:28:42;10.20;82.70
14140;DHT22;7150;53.514;9.988;2023-02-25T00:31:09;10.20;82.40
14140;DHT22;7150;53.514;9.988;2023-02-25T00:33:35;10.20;82.90
14140;DHT22;7150;53.514;9.988;2023-02-25T00:36:05;10.20;82.90
14140;DHT22;7150;53.514;9.988;2023-02-25T00:38:30;10.20;83.00
14140;DHT22;7150;53.514;9.988;2023-02-25T00:40:56;10.20;82.60
14140;DHT22;7150;53.514;9.988;2023-02-25T00:43:21;10.30;82.60
14140;DHT22;7150;53.514;9.988;2023-02-25T00:45:47;10.30;82.20
14140;DHT22;7150;53.514;9.988;2023-02-25T00:48:12;10.40;82.10
14140;DHT22;7150;53.514;9.988;2023-02-25T00:50:38;10.30;81.60
14140;DHT22;7150;53.514;9.988;2023-02-25T00:53:04;10.20;82.00
14140;DHT22;7150;53.514;9.988;2023-02-25T00:55:29;10.30;81.90
14140;DHT22;7150;53.514;9.988;2023-02-25T00:57:58;10.30;82.00
14140;DHT22;7150;53.514;9.988;2023-02-25T01:00:24;10.30;82.00
14140;DHT22;7150;53.514;9.988;2023-02-25T01:02:49;10.30;81.60
14140;DHT22;7150;53.514;9.988;2023-02-25T01:05:15;10.30;81.70
14140;DHT22;7150;53.514;9.988;2023-02-25T01:07:41;10.40;81.80
14140;DHT22;7150;53.514;9.988;2023-02-25T01:10:09;10.30;81.40
14140;DHT22;7150;53.514;9.988;2023-02-25T01:12:35;10.40;80.80
14140;DHT22;7150;53.514;9.988;2023-02-25T01:15:01;10.40;80.10
14140;DHT22;7150;53.514;9.988;2023-02-25T01:17:27;10.30;79.90
14140;DHT22;7150;53.514;9.988;2023-02-25T01:19:53;10.30;79.60
14140;DHT22;7150;53.514;9.988;2023-02-25T01:22:18;10.20;79.80
14140;DHT22;7150;53.514;9.988;2023-02-25T01:24:44;10.30;79.70
14140;DHT22;7150;53.514;9.988;2023-02-25T01:27:09;10.30;80.00
14140;DHT22;7150;53.514;9.988;2023-02-25T01:29:38;10.30;80.10
14140;DHT22;7150;53.514;9.988;2023-02-25T01:32:07;10.30;79.70
14140;DHT22;7150;53.514;9.988;2023-02-25T01:34:33;10.40;79.80
14140;DHT22;7150;53.514;9.988;2023-02-25T01:36:59;10.40;78.80
14140;DHT22;7150;53.514;9.988;2023-02-25T01:39:26;10.30;79.20
14140;DHT22;7150;53.514;9.988;2023-02-25T01:41:54;10.30;79.10
14140;DHT22;7150;53.514;9.988;2023-02-25T01:44:31;10.30;78.60
14140;DHT22;7150;53.514;9.988;2023-02-25T01:46:57;10.30;78.90
14140;DHT22;7150;53.514;9.988;2023-02-25T01:49:30;10.30;77.40
14140;DHT22;7150;53.514;9.988;2023-02-25T01:52:20;10.20;78.40
14140;DHT22;7150;53.514;9.988;2023-02-25T01:54:49;10.30;78.40
14140;DHT22;7150;53.514;9.988;2023-02-25T01:57:16;10.20;78.40
14140;DHT22;7150;53.514;9.988;2023-02-25T01:59:43;10.30;78.10
14140;DHT22;7150;53.514;9.988;2023-02-25T02:02:12;10.20;77.80
14140;DHT22;7150;53.514;9.988;2023-02-25T02:04:40;10.30;77.60
14140;DHT22;7150;53.514;9.988;2023-02-25T02:07:07;10.20;78.00
14140;DHT22;7150;53.514;9.988;2023-02-25T02:09:32;10.20;78.60
14140;DHT22;7150;53.514;9.988;2023-02-25T02:11:59;10.20;77.60
14140;DHT22;7150;53.514;9.988;2023-02-25T02:14:32;10.10;77.30
14140;DHT22;7150;53.514;9.988;2023-02-25T02:19:54;10.00;78.00
14140;DHT22;7150;53.514;9.988;2023-02-25T02:22:35;10.20;78.20
14140;DHT22;7150;53.514;9.988;2023-02-25T02:33:57;10.30;78.80
14140;DHT22;7150;53.514;9.988;2023-02-25T02:36:51;10.30;77.40
14140;DHT22;7150;53.514;9.988;2023-02-25T02:39:49;10.30;77.40
14140;DHT22;7150;53.514;9.988;2023-02-25T02:42:38;10.10;77.90
14140;DHT22;7150;53.514;9.988;2023-02-25T02:45:15;10.20;78.30
14140;DHT22;7150;53.514;9.988;2023-02-25T02:47:48;10.20;77.00
14140;DHT22;7150;53.514;9.988;2023-02-25T02:50:29;10.10;77.20
14140;DHT22;7150;53.514;9.988;2023-02-25T02:53:02;10.10;77.10
14140;DHT22;7150;53.514;9.988;2023-02-25T02:55:40;9.90;79.20
14140;DHT22;7150;53.514;9.988;2023-02-25T02:58:15;9.90;79.20
14140;DHT22;7150;53.514;9.988;2023-02-25T03:00:43;10.00;77.70
14140;DHT22;7150;53.514;9.988;2023-02-25T03:03:24;10.00;78.20
14140;DHT22;7150;53.514;9.988;2023-02-25T03:06:01;10.00;77.20
14140;DHT22;7150;53.514;9.988;2023-02-25T03:08:30;10.10;77.30
14140;DHT22;7150;53.514;9.988;2023-02-25T03:10:56;10.10;76.30
14140;DHT22;7150;53.514;9.988;2023-02-25T03:13:21;10.10;76.30
14140;DHT22;7150;53.514;9.988;2023-02-25T03:15:48;10.00;76.60
14140;DHT22;7150;53.514;9.988;2023-02-25T03:18:31;9.90;77.50
14140;DHT22;7150;53.514;9.988;2023-02-25T03:20:59;9.90;78.30
14140;DHT22;7150;53.514;9.988;2023-02-25T03:23:30;9.90;78.00
14140;DHT22;7150;53.514;9.988;2023-02-25T03:26:10;9.90;78.00
14140;DHT22;7150;53.514;9.988;2023-02-25T03:28:37;10.00;77.20
14140;DHT22;7150;53.514;9.988;2023-02-25T03:31:08;10.00;77.70
14140;DHT22;7150;53.514;9.988;2023-02-25T03:33:39;10.00;76.10
14140;DHT22;7150;53.514;9.988;2023-02-25T03:36:18;9.90;76.70
14140;DHT22;7150;53.514;9.988;2023-02-25T03:38:49;9.90;77.20
14140;DHT22;7150;53.514;9.988;2023-02-25T03:41:17;9.90;77.20
14140;DHT22;7150;53.514;9.988;2023-02-25T03:43:48;9.80;77.00
14140;DHT22;7150;53.514;9.988;2023-02-25T03:46:16;9.80;75.80
14140;DHT22;7150;53.514;9.988;2023-02-25T03:48:43;9.70;75.80
14140;DHT22;7150;53.514;9.988;2023-02-25T03:51:09;9.70;76.30
14140;DHT22;7150;53.514;9.988;2023-02-25T03:53:35;9.80;76.00
14140;DHT22;7150;53.514;9.988;2023-02-25T03:56:06;9.80;75.30
14140;DHT22;7150;53.514;9.988;2023-02-25T03:58:37;9.70;75.70
14140;DHT22;7150;53.514;9.988;2023-02-25T04:01:06;9.70;75.90
14140;DHT22;7150;53.514;9.988;2023-02-25T04:03:33;9.70;76.00
14140;DHT22;7150;53.514;9.988;2023-02-25T04:05:59;9.80;76.70
14140;DHT22;7150;53.514;9.988;2023-02-25T04:08:24;9.80;75.50
14140;DHT22;7150;53.514;9.988;2023-02-25T04:10:50;9.80;75.30
14140;DHT22;7150;53.514;9.988;2023-02-25T04:13:16;9.70;75.30
14140;DHT22;7150;53.514;9.988;2023-02-25T04:15:45;9.70;75.30
14140;DHT22;7150;53.514;9.988;2023-02-25T04:18:11;9.70;74.90
14140;DHT22;7150;53.514;9.988;2023-02-25T04:20:37;9.70;75.60
14140;DHT22;7150;53.514;9.988;2023-02-25T04:23:03;9.60;75.90
14140;DHT22;7150;53.514;9.988;2023-02-25T04:25:29;9.70;75.80
14140;DHT22;7150;53.514;9.988;2023-02-25T04:27:54;9.70;75.40
14140;DHT22;7150;53.514;9.988;2023-02-25T04:30:20;9.60;75.70
14140;DHT22;7150;53.514;9.988;2023-02-25T04:32:45;9.60;75.90
14140;DHT22;7150;53.514;9.988;2023-02-25T04:35:11;9.70;75.60
14140;DHT22;7150;53.514;9.988;2023-02-25T04:37:41;9.70;75.70
14140;DHT22;7150;53.514;9.988;2023-02-25T04:40:13;9.70;75.70
14140;DHT22;7150;53.514;9.988;2023-02-25T04:42:39;9.70;75.80
14140;DHT22;7150;53.514;9.988;2023-02-25T04:45:06;9.70;75.50
14140;DHT22;7150;53.514;9.988;2023-02-25T04:47:32;9.70;75.90
14140;DHT22;7150;53.514;9.988;2023-02-25T04:49:58;9.70;76.10
14140;DHT22;7150;53.514;9.988;2023-02-25T04:52:23;9.70;76.00
14140;DHT22;7150;53.514;9.988;2023-02-25T04:54:49;9.70;76.10
14140;DHT22;7150;53.514;9.988;2023-02-25T04:57:15;9.60;76.30
14140;DHT22;7150;53.514;9.988;2023-02-25T04:59:41;9.60;76.60
14140;DHT22;7150;53.514;9.988;2023-02-25T05:02:07;9.50;77.00
14140;DHT22;7150;53.514;9.988;2023-02-25T05:04:34;9.50;77.00
14140;DHT22;7150;53.514;9.988;2023-02-25T05:06:59;9.40;78.20
14140;DHT22;7150;53.514;9.988;2023-02-25T05:09:25;9.50;77.80
14140;DHT22;7150;53.514;9.988;2023-02-25T05:11:51;9.50;78.00
14140;DHT22;7150;53.514;9.988;2023-02-25T05:14:16;9.50;78.20
14140;DHT22;7150;53.514;9.988;2023-02-25T05:16:42;9.50;78.10
14140;DHT22;7150;53.514;9.988;2023-02-25T05:19:07;9.50;78.00
14140;DHT22;7150;53.514;9.988;2023-02-25T05:21:33;9.50;78.10
14140;DHT22;7150;53.514;9.988;2023-02-25T05:24:00;9.60;77.80
14140;DHT22;7150;53.514;9.988;2023-02-25T05:26:26;9.50;78.60
14140;DHT22;7150;53.514;9.988;2023-02-25T05:28:53;9.40;78.20
14140;DHT22;7150;53.514;9.988;2023-02-25T05:31:20;9.50;78.40
14140;DHT22;7150;53.514;9.988;2023-02-25T05:33:46;9.50;78.40
14140;DHT22;7150;53.514;9.988;2023-02-25T05:36:13;9.50;78.50
14140;DHT22;7150;53.514;9.988;2023-02-25T05:38:40;9.50;78.70
14140;DHT22;7150;53.514;9.988;2023-02-25T05:41:07;9.50;78.80
14140;DHT22;7150;53.514;9.988;2023-02-25T05:43:33;9.60;78.70
14140;DHT22;7150;53.514;9.988;2023-02-25T05:46:00;9.60;78.80
14140;DHT22;7150;53.514;9.988;2023-02-25T05:48:27;9.70;78.40
14140;DHT22;7150;53.514;9.988;2023-02-25T05:51:00;9.60;78.60
14140;DHT22;7150;53.514;9.988;2023-02-25T05:53:26;9.60;78.30
14140;DHT22;7150;53.514;9.988;2023-02-25T05:55:51;9.60;78.10
14140;DHT22;7150;53.514;9.988;2023-02-25T05:58:17;9.50;78.50
14140;DHT22;7150;53.514;9.988;2023-02-25T06:00:42;9.50;78.60
14140;DHT22;7150;53.514;9.988;2023-02-25T06:03:08;9.60;78.20
14140;DHT22;7150;53.514;9.988;2023-02-25T06:05:33;9.60;78.40
14140;DHT22;7150;53.514;9.988;2023-02-25T06:07:59;9.50;78.60
14140;DHT22;7150;53.514;9.988;2023-02-25T06:10:26;9.60;78.00
14140;DHT22;7150;53.514;9.988;2023-02-25T06:12:51;9.50;77.70
14140;DHT22;7150;53.514;9.988;2023-02-25T06:15:17;9.40;77.70
14140;DHT22;7150;53.514;9.988;2023-02-25T06:17:43;9.30;78.00
14140;DHT22;7150;53.514;9.988;2023-02-25T06:20:09;9.30;78.30
14140;DHT22;7150;53.514;9.988;2023-02-25T06:22:35;9.40;78.30
14140;DHT22;7150;53.514;9.988;2023-02-25T06:25:01;9.40;78.30
14140;DHT22;7150;53.514;9.988;2023-02-25T06:27:26;9.40;78.30
14140;DHT22;7150;53.514;9.988;2023-02-25T06:29:54;9.50;78.10
14140;DHT22;7150;53.514;9.988;2023-02-25T06:32:19;9.50;78.00
14140;DHT22;7150;53.514;9.988;2023-02-25T06:34:45;9.50;78.20
14140;DHT22;7150;53.514;9.988;2023-02-25T06:37:10;9.50;78.30
14140;DHT22;7150;53.514;9.988;2023-02-25T06:39:35;9.60;78.30
14140;DHT22;7150;53.514;9.988;2023-02-25T06:42:01;9.60;78.70
14140;DHT22;7150;53.514;9.988;2023-02-25T06:44:27;9.60;78.10
14140;DHT22;7150;53.514;9.988;2023-02-25T06:46:53;9.60;78.30
14140;DHT22;7150;53.514;9.988;2023-02-25T06:49:21;9.50;78.70
14140;DHT22;7150;53.514;9.988;2023-02-25T06:51:46;9.50;79.10
14140;DHT22;7150;53.514;9.988;2023-02-25T06:54:14;9.50;79.50
14140;DHT22;7150;53.514;9.988;2023-02-25T07:00:04;9.50;79.60
14140;DHT22;7150;53.514;9.988;2023-02-25T07:02:30;9.50;79.70
14140;DHT22;7150;53.514;9.988;2023-02-25T07:04:55;9.50;79.90
14140;DHT22;7150;53.514;9.988;2023-02-25T07:07:21;9.50;79.80
14140;DHT22;7150;53.514;9.988;2023-02-25T07:09:47;9.50;79.70
14140;DHT22;7150;53.514;9.988;2023-02-25T07:12:12;9.50;79.90
14140;DHT22;7150;53.514;9.988;2023-02-25T07:14:38;9.50;79.60
14140;DHT22;7150;53.514;9.988;2023-02-25T07:17:04;9.50;79.90
14140;DHT22;7150;53.514;9.988;2023-02-25T07:19:29;9.40;80.30
14140;DHT22;7150;53.514;9.988;2023-02-25T07:21:55;9.30;81.40
14140;DHT22;7150;53.514;9.988;2023-02-25T07:24:20;9.10;83.00
14140;DHT22;7150;53.514;9.988;2023-02-25T07:26:47;8.90;83.10
14140;DHT22;7150;53.514;9.988;2023-02-25T07:29:13;8.80;83.70
14140;DHT22;7150;53.514;9.988;2023-02-25T07:31:38;8.90;84.20
14140;DHT22;7150;53.514;9.988;2023-02-25T07:34:04;9.00;84.10
14140;DHT22;7150;53.514;9.988;2023-02-25T07:36:34;9.00;84.00
14140;DHT22;7150;53.514;9.988;2023-02-25T07:39:03;9.20;83.60
14140;DHT22;7150;53.514;9.988;2023-02-25T07:41:29;9.20;82.90
14140;DHT22;7150;53.514;9.988;2023-02-25T07:43:54;9.20;81.80
14140;DHT22;7150;53.514;9.988;2023-02-25T07:46:20;9.30;81.50
14140;DHT22;7150;53.514;9.988;2023-02-25T07:48:46;9.20;81.30
14140;DHT22;7150;53.514;9.988;2023-02-25T07:51:15;9.30;80.60
14140;DHT22;7150;53.514;9.988;2023-02-25T07:53:43;9.30;80.30
14140;DHT22;7150;53.514;9.988;2023-02-25T07:56:09;9.30;80.20
14140;DHT22;7150;53.514;9.988;2023-02-25T07:58:35;9.40;80.10
14140;DHT22;7150;53.514;9.988;2023-02-25T08:01:00;9.40;79.90
14140;DHT22;7150;53.514;9.988;2023-02-25T08:03:31;9.40;79.50
14140;DHT22;7150;53.514;9.988;2023-02-25T08:05:56;9.40;79.90
14140;DHT22;7150;53.514;9.988;2023-02-25T08:08:22;9.30;80.30
14140;DHT22;7150;53.514;9.988;2023-02-25T08:10:47;9.30;80.10
14140;DHT22;7150;53.514;9.988;2023-02-25T08:13:13;9.40;80.00
14140;DHT22;7150;53.514;9.988;2023-02-25T08:15:42;9.40;80.30
14140;DHT22;7150;53.514;9.988;2023-02-25T08:18:08;9.50;80.30
14140;DHT22;7150;53.514;9.988;2023-02-25T08:20:34;9.40;79.90
14140;DHT22;7150;53.514;9.988;2023-02-25T08:22:59;9.50;80.20
14140;DHT22;7150;53.514;9.988;2023-02-25T08:25:25;9.60;79.80
14140;DHT22;7150;53.514;9.988;2023-02-25T08:27:51;9.60;79.20
14140;DHT22;7150;53.514;9.988;2023-02-25T08:30:17;9.50;79.20
14140;DHT22;7150;53.514;9.988;2023-02-25T08:32:43;9.50;79.50
14140;DHT22;7150;53.514;9.988;2023-02-25T08:35:09;9.40;79.00
14140;DHT22;7150;53.514;9.988;2023-02-25T08:37:34;9.40;78.90
14140;DHT22;7150;53.514;9.988;2023-02-25T08:40:00;9.40;79.00
14140;DHT22;7150;53.514;9.988;2023-02-25T08:42:26;9.40;79.30
14140;DHT22;7150;53.514;9.988;2023-02-25T08:44:51;9.40;80.20
14140;DHT22;7150;53.514;9.988;2023-02-25T08:47:17;9.20;80.80
14140;DHT22;7150;53.514;9.988;2023-02-25T08:49:42;9.10;81.50
14140;DHT22;7150;53.514;9.988;2023-02-25T08:52:09;9.20;81.80
14140;DHT22;7150;53.514;9.988;2023-02-25T08:54:37;9.20;81.70
14140;DHT22;7150;53.514;9.988;2023-02-25T08:57:03;9.30;81.00
14140;DHT22;7150;53.514;9.988;2023-02-25T08:59:28;9.30;80.50
14140;DHT22;7150;53.514;9.988;2023-02-25T09:02:09;9.30;79.70
14140;DHT22;7150;53.514;9.988;2023-02-25T09:04:39;9.40;79.40
14140;DHT22;7150;53.514;9.988;2023-02-25T09:07:05;9.40;79.30
14140;DHT22;7150;53.514;9.988;2023-02-25T09:09:30;9.50;78.60
14140;DHT22;7150;53.514;9.988;2023-02-25T09:11:57;9.40;78.10
14140;DHT22;7150;53.514;9.988;2023-02-25T09:14:23;9.40;78.50
14140;DHT22;7150;53.514;9.988;2023-02-25T09:16:48;9.40;77.70
14140;DHT22;7150;53.514;9.988;2023-02-25T09:19:14;9.40;77.40
14140;DHT22;7150;53.514;9.988;2023-02-25T09:21:42;9.50;77.40
14140;DHT22;7150;53.514;9.988;2023-02-25T09:24:08;9.50;77.60
14140;DHT22;7150;53.514;9.988;2023-02-25T09:26:33;9.50;77.40
14140;DHT22;7150;53.514;9.988;2023-02-25T09:29:00;9.40;76.50
14140;DHT22;7150;53.514;9.988;2023-02-25T09:31:26;9.60;75.10
14140;DHT22;7150;53.514;9.988;2023-02-25T09:33:52;9.50;74.30
14140;DHT22;7150;53.514;9.988;2023-02-25T09:36:19;9.40;74.60
14140;DHT22;7150;53.514;9.988;2023-02-25T09:38:46;9.40;76.00
14140;DHT22;7150;53.514;9.988;2023-02-25T09:41:28;9.50;74.80
14140;DHT22;7150;53.514;9.988;2023-02-25T09:44:02;9.50;75.00
14140;DHT22;7150;53.514;9.988;2023-02-25T09:46:30;9.60;75.00
14140;DHT22;7150;53.514;9.988;2023-02-25T09:49:06;9.70;74.90
14140;DHT22;7150;53.514;9.988;2023-02-25T09:51:39;9.70;74.30
14140;DHT22;7150;53.514;9.988;2023-02-25T09:56:44;9.70;74.70
14140;DHT22;7150;53.514;9.988;2023-02-25T09:59:14;9.60;74.50
14140;DHT22;7150;53.514;9.988;2023-02-25T10:01:50;9.60;74.20
14140;DHT22;7150;53.514;9.988;2023-02-25T10:04:31;9.60;73.90
14140;DHT22;7150;53.514;9.988;2023-02-25T10:07:18;9.50;74.50
14140;DHT22;7150;53.514;9.988;2023-02-25T10:09:52;9.40;73.60
14140;DHT22;7150;53.514;9.988;2023-02-25T10:12:29;9.60;72.60
14140;DHT22;7150;53.514;9.988;2023-02-25T10:24:20;9.80;71.00
14140;DHT22;7150;53.514;9.988;2023-02-25T10:26:51;9.70;70.60
14140;DHT22;7150;53.514;9.988;2023-02-25T10:29:35;9.70;70.50
14140;DHT22;7150;53.514;9.988;2023-02-25T10:32:24;9.70;69.80
14140;DHT22;7150;53.514;9.988;2023-02-25T10:34:55;9.70;68.80
14140;DHT22;7150;53.514;9.988;2023-02-25T10:37:40;9.60;68.70
14140;DHT22;7150;53.514;9.988;2023-02-25T10:40:07;9.50;69.10
14140;DHT22;7150;53.514;9.988;2023-02-25T10:42:38;9.50;70.50
14140;DHT22;7150;53.514;9.988;2023-02-25T10:45:10;9.50;70.70
14140;DHT22;7150;53.514;9.988;2023-02-25T10:47:39;9.60;71.30
14140;DHT22;7150;53.514;9.988;2023-02-25T10:50:12;9.60;71.50
14140;DHT22;7150;53.514;9.988;2023-02-25T10:55:45;9.80;69.10
14140;DHT22;7150;53.514;9.988;2023-02-25T11:01:03;9.80;67.90
14140;DHT22;7150;53.514;9.988;2023-02-25T11:03:32;9.70;68.10
14140;DHT22;7150;53.514;9.988;2023-02-25T11:06:10;9.70;68.40
14140;DHT22;7150;53.514;9.988;2023-02-25T11:08:36;9.80;68.20
14140;DHT22;7150;53.514;9.988;2023-02-25T11:11:15;9.80;67.70
14140;DHT22;7150;53.514;9.988;2023-02-25T11:13:42;9.80;67.80
14140;DHT22;7150;53.514;9.988;2023-02-25T11:16:10;9.80;67.50
14140;DHT22;7150;53.514;9.988;2023-02-25T11:18:38;9.80;65.30
14140;DHT22;7150;53.514;9.988;2023-02-25T11:21:09;9.80;64.40
14140;DHT22;7150;53.514;9.988;2023-02-25T11:23:46;9.80;64.20
14140;DHT22;7150;53.514;9.988;2023-02-25T11:26:29;9.80;63.90
14140;DHT22;7150;53.514;9.988;2023-02-25T11:29:03;10.00;62.70
14140;DHT22;7150;53.514;9.988;2023-02-25T11:31:40;10.10;61.70
14140;DHT22;7150;53.514;9.988;2023-02-25T11:34:14;10.10;61.80
14140;DHT22;7150;53.514;9.988;2023-02-25T11:36:41;10.00;60.60
14140;DHT22;7150;53.514;9.988;2023-02-25T11:41:32;9.90;62.60
14140;DHT22;7150;53.514;9.988;2023-02-25T11:44:16;10.00;61.20
14140;DHT22;7150;53.514;9.988;2023-02-25T11:46:43;10.10;59.70
14140;DHT22;7150;53.514;9.988;2023-02-25T11:49:20;10.00;59.70
14140;DHT22;7150;53.514;9.988;2023-02-25T11:51:54;10.00;60.00
14140;DHT22;7150;53.514;9.988;2023-02-25T11:54:29;10.00;60.40
14140;DHT22;7150;53.514;9.988;2023-02-25T11:57:11;10.10;59.90
14140;DHT22;7150;53.514;9.988;2023-02-25T11:59:47;10.00;59.20
14140;DHT22;7150;53.514;9.988;2023-02-25T12:02:33;10.10;59.20
14140;DHT22;7150;53.514;9.988;2023-02-25T12:05:33;10.10;57.50
14140;DHT22;7150;53.514;9.988;2023-02-25T12:11:38;10.00;58.10
14140;DHT22;7150;53.514;9.988;2023-02-25T12:14:51;10.10;58.60
14140;DHT22;7150;53.514;9.988;2023-02-25T12:20:40;10.20;58.00
14140;DHT22;7150;53.514;9.988;2023-02-25T12:23:26;10.20;57.20
14140;DHT22;7150;53.514;9.988;2023-02-25T12:26:13;10.20;56.60
14140;DHT22;7150;53.514;9.988;2023-02-25T12:34:15;10.20;56.50
14140;DHT22;7150;53.514;9.988;2023-02-25T12:39:47;10.40;57.90
14140;DHT22;7150;53.514;9.988;2023-02-25T12:48:23;10.40;59.10
14140;DHT22;7150;53.514;9.988;2023-02-25T12:54:20;10.50;56.60
14140;DHT22;7150;53.514;9.988;2023-02-25T13:00:21;10.50;56.00
14140;DHT22;7150;53.514;9.988;2023-02-25T13:02:56;10.40;56.50
14140;DHT22;7150;53.514;9.988;2023-02-25T13:11:01;10.40;54.50
14140;DHT22;7150;53.514;9.988;2023-02-25T13:13:59;10.30;54.90
14140;DHT22;7150;53.514;9.988;2023-02-25T13:39:55;10.30;54.00
14140;DHT22;7150;53.514;9.988;2023-02-25T13:51:18;10.10;53.10
14140;DHT22;7150;53.514;9.988;2023-02-25T13:57:03;10.20;52.80
14140;DHT22;7150;53.514;9.988;2023-02-25T14:02:45;10.30;52.80
14140;DHT22;7150;53.514;9.988;2023-02-25T14:08:59;10.40;53.80
14140;DHT22;7150;53.514;9.988;2023-02-25T14:11:47;10.50;54.00
14140;DHT22;7150;53.514;9.988;2023-02-25T14:14:25;10.50;53.80
14140;DHT22;7150;53.514;9.988;2023-02-25T14:17:07;10.60;52.40
14140;DHT22;7150;53.514;9.988;2023-02-25T14:19:58;10.60;51.80
14140;DHT22;7150;53.514;9.988;2023-02-25T14:23:31;10.50;51.70
14140;DHT22;7150;53.514;9.988;2023-02-25T14:29:12;10.70;52.00
14140;DHT22;7150;53.514;9.988;2023-02-25T14:37:03;10.70;52.50
14140;DHT22;7150;53.514;9.988;2023-02-25T14:45:22;10.80;50.70
14140;DHT22;7150;53.514;9.988;2023-02-25T14:50:28;10.80;51.30
14140;DHT22;7150;53.514;9.988;2023-02-25T14:56:24;10.80;51.30
14140;DHT22;7150;53.514;9.988;2023-02-25T14:59:13;10.70;51.30
14140;DHT22;7150;53.514;9.988;2023-02-25T15:02:03;10.50;51.20
14140;DHT22;7150;53.514;9.988;2023-02-25T15:07:39;10.50;50.70
14140;DHT22;7150;53.514;9.988;2023-02-25T15:10:28;10.50;51.00
14140;DHT22;7150;53.514;9.988;2023-02-25T15:13:14;10.50;50.70
14140;DHT22;7150;53.514;9.988;2023-02-25T15:16:07;10.60;50.40
14140;DHT22;7150;53.514;9.988;2023-02-25T15:21:37;10.60;48.80
14140;DHT22;7150;53.514;9.988;2023-02-25T15:24:09;10.50;48.90
14140;DHT22;7150;53.514;9.988;2023-02-25T15:32:22;10.60;48.90
14140;DHT22;7150;53.514;9.988;2023-02-25T15:35:19;10.50;52.00
14140;DHT22;7150;53.514;9.988;2023-02-25T15:42:55;9.50;70.60
14140;DHT22;7150;53.514;9.988;2023-02-25T15:56:50;9.50;66.50
14140;DHT22;7150;53.514;9.988;2023-02-25T15:59:39;9.50;65.40
14140;DHT22;7150;53.514;9.988;2023-02-25T16:04:56;9.60;64.50
14140;DHT22;7150;53.514;9.988;2023-02-25T16:07:34;9.70;63.30
14140;DHT22;7150;53.514;9.988;2023-02-25T16:10:32;9.80;63.00
14140;DHT22;7150;53.514;9.988;2023-02-25T16:12:59;9.90;62.60
14140;DHT22;7150;53.514;9.988;2023-02-25T16:15:36;9.90;62.40
14140;DHT22;7150;53.514;9.988;2023-02-25T16:21:03;9.80;62.20
14140;DHT22;7150;53.514;9.988;2023-02-25T16:23:31;9.80;60.90
14140;DHT22;7150;53.514;9.988;2023-02-25T16:29:01;9.80;60.90
14140;DHT22;7150;53.514;9.988;2023-02-25T16:34:25;9.70;59.50
14140;DHT22;7150;53.514;9.988;2023-02-25T16:39:49;9.80;59.00
14140;DHT22;7150;53.514;9.988;2023-02-25T16:42:16;9.80;59.10
14140;DHT22;7150;53.514;9.988;2023-02-25T16:44:54;9.80;59.20
14140;DHT22;7150;53.514;9.988;2023-02-25T16:47:26;9.80;60.00
14140;DHT22;7150;53.514;9.988;2023-02-25T16:49:53;9.90;59.20
14140;DHT22;7150;53.514;9.988;2023-02-25T16:52:30;9.80;58.60
14140;DHT22;7150;53.514;9.988;2023-02-25T16:54:59;9.80;58.90
14140;DHT22;7150;53.514;9.988;2023-02-25T16:57:26;9.80;59.20
14140;DHT22;7150;53.514;9.988;2023-02-25T17:00:11;9.80;59.20
14140;DHT22;7150;53.514;9.988;2023-02-25T17:02:48;9.90;59.30
14140;DHT22;7150;53.514;9.988;2023-02-25T17:05:35;9.80;59.40
14140;DHT22;7150;53.514;9.988;2023-02-25T17:08:12;9.80;60.00
14140;DHT22;7150;53.514;9.988;2023-02-25T17:10:48;9.70;60.40
14140;DHT22;7150;53.514;9.988;2023-02-25T17:13:25;9.70;60.50
14140;DHT22;7150;53.514;9.988;2023-02-25T17:15:52;9.70;60.60
14140;DHT22;7150;53.514;9.988;2023-02-25T17:18:25;9.70;60.90
14140;DHT22;7150;53.514;9.988;2023-02-25T17:21:02;9.70;61.00
14140;DHT22;7150;53.514;9.988;2023-02-25T17:23:30;9.70;61.00
14140;DHT22;7150;53.514;9.988;2023-02-25T17:26:01;9.60;60.80
14140;DHT22;7150;53.514;9.988;2023-02-25T17:28:29;9.70;60.90
14140;DHT22;7150;53.514;9.988;2023-02-25T17:31:07;9.70;60.30
14140;DHT22;7150;53.514;9.988;2023-02-25T17:33:33;9.70;59.70
14140;DHT22;7150;53.514;9.988;2023-02-25T17:36:05;9.70;59.50
14140;DHT22;7150;53.514;9.988;2023-02-25T17:38:34;9.60;59.20
14140;DHT22;7150;53.514;9.988;2023-02-25T17:40:59;9.60;59.60
14140;DHT22;7150;53.514;9.988;2023-02-25T17:43:33;9.60;60.40
14140;DHT22;7150;53.514;9.988;2023-02-25T17:46:01;9.60;59.60
14140;DHT22;7150;53.514;9.988;2023-02-25T17:48:30;9.60;59.50
14140;DHT22;7150;53.514;9.988;2023-02-25T17:51:07;9.70;59.60
14140;DHT22;7150;53.514;9.988;2023-02-25T17:53:53;9.70;59.40
14140;DHT22;7150;53.514;9.988;2023-02-25T17:56:30;9.70;59.00
14140;DHT22;7150;53.514;9.988;2023-02-25T17:59:06;9.60;59.00
14140;DHT22;7150;53.514;9.988;2023-02-25T18:01:54;9.60;59.00
14140;DHT22;7150;53.514;9.988;2023-02-25T18:04:40;9.60;59.10
14140;DHT22;7150;53.514;9.988;2023-02-25T18:09:45;9.50;59.10
14140;DHT22;7150;53.514;9.988;2023-02-25T18:14:52;9.40;57.10
14140;DHT22;7150;53.514;9.988;2023-02-25T18:17:35;9.30;57.20
14140;DHT22;7150;53.514;9.988;2023-02-25T18:20:05;9.40;56.70
14140;DHT22;7150;53.514;9.988;2023-02-25T18:22:44;9.40;56.50
14140;DHT22;7150;53.514;9.988;2023-02-25T18:25:36;9.30;56.50
14140;DHT22;7150;53.514;9.988;2023-02-25T18:28:05;9.30;56.50
14140;DHT22;7150;53.514;9.988;2023-02-25T18:30:31;9.20;56.90
14140;DHT22;7150;53.514;9.988;2023-02-25T18:32:58;9.30;57.40
14140;DHT22;7150;53.514;9.988;2023-02-25T18:35:29;9.30;57.00
14140;DHT22;7150;53.514;9.988;2023-02-25T18:37:56;9.40;56.20
14140;DHT22;7150;53.514;9.988;2023-02-25T18:40:28;9.30;56.60
14140;DHT22;7150;53.514;9.988;2023-02-25T18:42:55;9.20;56.70
14140;DHT22;7150;53.514;9.988;2023-02-25T18:45:22;9.30;57.20
14140;DHT22;7150;53.514;9.988;2023-02-25T18:47:49;9.30;57.70
14140;DHT22;7150;53.514;9.988;2023-02-25T18:50:15;9.20;58.10
14140;DHT22;7150;53.514;9.988;2023-02-25T18:52:41;9.10;58.20
14140;DHT22;7150;53.514;9.988;2023-02-25T18:55:12;9.20;58.60
14140;DHT22;7150;53.514;9.988;2023-02-25T18:57:39;9.10;58.80
14140;DHT22;7150;53.514;9.988;2023-02-25T19:00:05;9.00;60.40
14140;DHT22;7150;53.514;9.988;2023-02-25T19:02:32;9.00;61.10
14140;DHT22;7150;53.514;9.988;2023-02-25T19:04:59;9.00;61.60
14140;DHT22;7150;53.514;9.988;2023-02-25T19:07:28;9.00;62.10
14140;DHT22;7150;53.514;9.988;2023-02-25T19:09:54;9.10;62.30
14140;DHT22;7150;53.514;9.988;2023-02-25T19:15:42;9.20;62.00
14140;DHT22;7150;53.514;9.988;2023-02-25T19:18:11;9.10;61.80
14140;DHT22;7150;53.514;9.988;2023-02-25T19:20:37;9.20;61.40
14140;DHT22;7150;53.514;9.988;2023-02-25T19:23:02;9.20;61.10